createdAt,value
2019-06-10T00:01:11.948Z,43.28
2019-06-10T00:03:45.410Z,43.58
2019-06-10T00:06:20.812Z,43.34
2019-06-10T00:08:53.628Z,43.13
2019-06-10T00:11:26.866Z,43.50
2019-06-10T00:14:02.442Z,43.21
2019-06-10T00:16:34.966Z,43.48
2019-06-10T00:19:10.144Z,43.12
2019-06-10T00:21:42.995Z,43.29
2019-06-10T00:24:17.149Z,43.31
2019-06-10T00:26:51.020Z,43.32
2019-06-10T00:29:25.533Z,43.08
2019-06-10T00:32:01.728Z,43.09
2019-06-10T00:34:35.094Z,43.03
2019-06-10T00:37:10.308Z,43.09
2019-06-10T00:39:43.274Z,43.27
2019-06-10T00:42:16.514Z,43.40
2019-06-10T00:44:50.901Z,43.35
2019-06-10T00:47:24.177Z,43.17
2019-06-10T00:49:57.445Z,43.43
2019-06-10T00:52:30.922Z,43.16
2019-06-10T00:55:04.904Z,43.03
2019-06-10T00:57:41.705Z,43.48
2019-06-10T01:00:25.212Z,43.23
2019-06-10T01:02:51.773Z,43.33
2019-06-10T01:05:25.094Z,43.06
2019-06-10T01:07:58.442Z,43.46
2019-06-10T01:10:32.182Z,43.44
2019-06-10T01:13:05.348Z,43.23
2019-06-10T01:15:41.670Z,43.44
2019-06-10T01:18:32.024Z,43.50
2019-06-10T01:20:51.577Z,43.34
2019-06-10T01:23:24.387Z,43.79
2019-06-10T01:25:57.692Z,43.80
2019-06-10T01:28:31.403Z,43.73
2019-06-10T01:31:08.524Z,44.21
2019-06-10T01:33:41.113Z,44.16
2019-06-10T01:36:16.450Z,44.11
2019-06-10T01:38:51.187Z,43.96
2019-06-10T01:41:24.438Z,44.05
2019-06-10T01:43:57.762Z,44.16
2019-06-10T01:46:31.630Z,44.19
2019-06-10T01:49:05.000Z,44.62
2019-06-10T01:51:38.221Z,44.23
2019-06-10T01:54:12.391Z,44.48
2019-06-10T01:56:46.562Z,44.29
2019-06-10T01:59:21.940Z,44.06
2019-06-10T02:02:00.981Z,44.36
2019-06-10T02:04:34.587Z,44.23
2019-06-10T02:07:09.213Z,44.40
2019-06-10T02:09:42.896Z,44.39
2019-06-10T02:12:18.754Z,44.48
2019-06-10T02:14:51.125Z,44.46
2019-06-10T02:17:24.483Z,44.47
2019-06-10T02:19:57.850Z,44.74
2019-06-10T02:22:32.097Z,44.81
2019-06-10T02:25:05.680Z,44.91
2019-06-10T02:27:41.347Z,44.74
2019-06-10T02:30:26.316Z,44.96
2019-06-10T02:32:52.131Z,45.29
2019-06-10T02:35:30.446Z,44.99
2019-06-10T02:37:58.364Z,46.25
2019-06-10T02:40:35.773Z,46.59
2019-06-10T02:43:07.704Z,46.38
2019-06-10T02:45:44.207Z,46.25
2019-06-10T02:48:19.665Z,46.43
2019-06-10T02:51:08.312Z,46.62
2019-06-10T02:53:43.490Z,46.74
2019-06-10T02:56:17.721Z,46.71
2019-06-10T02:58:53.501Z,47.21
2019-06-10T03:01:31.884Z,47.25
2019-06-10T03:04:04.314Z,47.62
2019-06-10T03:06:39.986Z,47.63
2019-06-10T03:09:13.794Z,47.87
2019-06-10T03:11:45.724Z,48.09
2019-06-10T03:14:19.778Z,48.16
2019-06-10T03:16:57.635Z,48.31
2019-06-10T03:19:45.812Z,48.39
2019-06-10T03:22:05.602Z,48.69
2019-06-10T03:24:38.658Z,49.04
2019-06-10T03:27:12.638Z,48.91
2019-06-10T03:29:45.936Z,48.81
2019-06-10T03:32:20.144Z,48.82
2019-06-10T03:34:54.997Z,49.14
2019-06-10T03:37:28.353Z,49.46
2019-06-10T03:40:02.482Z,49.28
2019-06-10T03:42:36.218Z,49.45
2019-06-10T03:45:12.447Z,49.75
2019-06-10T03:47:45.035Z,49.82
2019-06-10T03:50:19.190Z,49.97
2019-06-10T03:52:52.528Z,50.10
2019-06-10T03:55:27.927Z,50.02
2019-06-10T03:58:02.225Z,50.45
2019-06-10T04:00:37.097Z,50.38
2019-06-10T04:03:12.121Z,50.56
2019-06-10T04:05:46.482Z,50.47
2019-06-10T04:08:22.030Z,50.93
2019-06-10T04:10:54.419Z,51.02
2019-06-10T04:13:28.470Z,51.08
2019-06-10T04:16:02.380Z,51.50
2019-06-10T04:18:35.971Z,51.55
2019-06-10T04:21:09.149Z,51.44
2019-06-10T04:23:42.641Z,51.89
2019-06-10T04:26:17.563Z,51.85
2019-06-10T04:28:53.063Z,51.96
2019-06-10T04:31:26.873Z,52.54
2019-06-10T04:34:02.941Z,52.23
2019-06-10T04:36:35.377Z,52.14
2019-06-10T04:39:09.162Z,52.14
2019-06-10T04:41:42.785Z,52.17
2019-06-10T04:44:16.039Z,52.19
2019-06-10T04:46:49.142Z,52.65
2019-06-10T04:49:25.088Z,52.40
2019-06-10T04:51:57.156Z,52.56
2019-06-10T04:54:30.460Z,52.92
2019-06-10T04:57:03.926Z,53.03
2019-06-10T04:59:38.411Z,53.01
2019-06-10T05:02:12.880Z,52.99
2019-06-10T05:04:46.254Z,53.23
2019-06-10T05:07:19.530Z,53.42
2019-06-10T05:09:52.732Z,53.66
2019-06-10T05:12:26.771Z,53.16
2019-06-10T05:15:03.282Z,53.29
2019-06-10T05:17:35.655Z,52.93
2019-06-10T05:20:09.503Z,52.84
2019-06-10T05:22:42.708Z,53.08
2019-06-10T05:25:17.032Z,53.39
2019-06-10T05:27:52.220Z,53.31
2019-06-10T05:30:29.107Z,53.16
2019-06-10T05:33:03.073Z,52.78
2019-06-10T05:35:43.630Z,53.21
2019-06-10T05:38:18.733Z,53.13
2019-06-10T05:40:52.219Z,53.41
2019-06-10T05:43:26.396Z,53.48
2019-06-10T05:46:02.589Z,53.36
2019-06-10T05:48:35.185Z,53.55
2019-06-10T05:51:08.650Z,53.24
2019-06-10T05:53:42.735Z,53.84
2019-06-10T05:56:16.925Z,53.80
2019-06-10T05:58:52.253Z,54.01
2019-06-10T06:01:25.657Z,53.85
2019-06-10T06:03:58.986Z,54.38
2019-06-10T06:06:34.071Z,54.56
2019-06-10T06:09:08.882Z,53.84
2019-06-10T06:11:43.055Z,53.37
2019-06-10T06:14:16.597Z,53.63
2019-06-10T06:16:49.856Z,53.07
2019-06-10T06:19:23.317Z,52.72
2019-06-10T06:21:56.663Z,52.00
2019-06-10T06:24:29.929Z,52.62
2019-06-10T06:27:03.378Z,52.30
2019-06-10T06:29:38.250Z,51.69
2019-06-10T06:32:13.182Z,51.88
2019-06-10T06:34:47.595Z,51.52
2019-06-10T06:37:23.203Z,51.06
2019-06-10T06:39:56.136Z,52.28
2019-06-10T06:42:29.565Z,51.90
2019-06-10T06:45:03.352Z,51.38
2019-06-10T06:47:37.699Z,52.00
2019-06-10T06:50:13.046Z,52.13
2019-06-10T06:53:16.924Z,52.00
2019-06-10T06:55:23.388Z,51.65
2019-06-10T06:57:56.626Z,51.84
2019-06-10T07:00:52.964Z,51.64
2019-06-10T07:03:12.550Z,51.39
2019-06-10T07:05:48.475Z,51.74
2019-06-10T07:08:22.784Z,51.69
2019-06-10T07:10:58.557Z,51.73
2019-06-10T07:13:37.125Z,51.73
2019-06-10T07:16:09.555Z,52.16
2019-06-10T07:18:49.554Z,52.09
2019-06-10T07:21:17.989Z,51.99
2019-06-10T07:23:52.891Z,51.70
2019-06-10T07:26:26.498Z,51.77
2019-06-10T07:29:02.738Z,51.84
2019-06-10T07:31:36.548Z,51.98
2019-06-10T07:34:10.006Z,52.38
2019-06-10T07:36:45.190Z,52.08
2019-06-10T07:39:18.505Z,52.38
2019-06-10T07:41:52.881Z,52.38
2019-06-10T07:44:26.404Z,52.80
2019-06-10T07:47:02.409Z,52.80
2019-06-10T07:49:35.372Z,52.93
2019-06-10T07:52:18.500Z,53.00
2019-06-10T07:54:45.402Z,53.28
2019-06-10T07:57:18.810Z,53.07
2019-06-10T07:59:52.460Z,52.80
2019-06-10T08:02:25.922Z,52.52
2019-06-10T08:04:59.348Z,53.33
2019-06-10T08:07:33.483Z,52.92
2019-06-10T08:10:13.260Z,52.64
2019-06-10T08:12:48.273Z,52.54
2019-06-10T08:15:22.996Z,52.73
2019-06-10T08:17:57.063Z,52.08
2019-06-10T08:20:47.629Z,52.18
2019-06-10T08:23:23.655Z,52.63
2019-06-10T08:25:57.981Z,52.25
2019-06-10T08:28:33.246Z,51.99
2019-06-10T08:31:06.598Z,51.55
2019-06-10T08:33:42.560Z,51.82
2019-06-10T08:36:15.244Z,51.35
2019-06-10T08:38:49.170Z,50.44
2019-06-10T08:41:23.200Z,50.63
2019-06-10T08:43:56.878Z,50.93
2019-06-10T08:46:32.993Z,50.26
2019-06-10T08:49:07.102Z,49.93
2019-06-10T08:51:45.427Z,49.74
2019-06-10T08:54:16.162Z,49.26
2019-06-10T08:56:50.906Z,49.70
2019-06-10T08:59:25.906Z,49.85
2019-06-10T09:01:59.343Z,50.09
2019-06-10T09:04:33.198Z,48.80
2019-06-10T09:07:06.627Z,49.11
2019-06-10T09:09:40.511Z,48.50
2019-06-10T09:12:28.735Z,48.01
2019-06-10T09:14:52.998Z,49.21
2019-06-10T09:17:25.716Z,48.91
2019-06-10T09:19:59.131Z,49.09
2019-06-10T09:22:32.775Z,47.95
2019-06-10T09:25:07.166Z,47.46
2019-06-10T09:27:44.941Z,46.93
2019-06-10T09:30:18.779Z,47.31
2019-06-10T09:32:56.361Z,47.25
2019-06-10T09:35:28.846Z,46.74
2019-06-10T09:38:03.700Z,46.59
2019-06-10T09:41:00.815Z,47.14
2019-06-10T09:43:28.380Z,45.78
2019-06-10T09:46:03.673Z,45.49
2019-06-10T09:48:37.254Z,46.03
2019-06-10T09:51:13.362Z,44.54
2019-06-10T09:54:01.115Z,44.50
2019-06-10T09:56:29.493Z,45.17
2019-06-10T09:59:17.889Z,44.06
2019-06-10T10:01:58.720Z,43.58
2019-06-10T10:04:32.893Z,43.59
2019-06-10T10:07:34.671Z,43.32
2019-06-10T10:10:23.995Z,43.30
2019-06-10T10:13:28.495Z,42.39
2019-06-10T10:16:08.836Z,42.39
2019-06-10T10:18:48.297Z,42.74
2019-06-10T10:21:36.256Z,43.28
2019-06-10T10:24:15.081Z,43.04
2019-06-10T10:26:56.952Z,42.14
2019-06-10T10:29:27.272Z,43.03
2019-06-10T10:32:02.621Z,43.26
2019-06-10T10:34:36.223Z,42.41
2019-06-10T10:37:12.234Z,42.58
2019-06-10T10:39:49.066Z,40.79
2019-06-10T10:42:23.869Z,41.60
2019-06-10T10:44:59.262Z,42.57
2019-06-10T10:47:33.866Z,42.31
2019-06-10T10:50:13.654Z,42.88
2019-06-10T10:52:46.766Z,41.43
2019-06-10T10:55:33.481Z,41.60
2019-06-10T10:58:45.350Z,41.79
2019-06-10T11:01:23.784Z,42.58
2019-06-10T11:03:59.238Z,43.75
2019-06-10T11:06:32.410Z,43.70
2019-06-10T11:09:12.987Z,43.78
2019-06-10T11:11:48.862Z,44.01
2019-06-10T11:14:23.068Z,44.15
2019-06-10T11:16:58.882Z,44.07
2019-06-10T11:19:32.939Z,43.89
2019-06-10T11:22:06.167Z,43.61
2019-06-10T11:24:42.283Z,44.08
2019-06-10T11:27:14.133Z,43.28
2019-06-10T11:29:48.171Z,43.21
2019-06-10T11:32:21.820Z,42.43
2019-06-10T11:34:56.875Z,41.18
2019-06-10T11:37:30.660Z,41.83
2019-06-10T11:40:04.979Z,40.45
2019-06-10T11:42:38.615Z,39.79
2019-06-10T11:45:12.729Z,39.77
2019-06-10T11:47:46.690Z,37.70
2019-06-10T11:50:23.228Z,37.79
2019-06-10T11:53:00.234Z,38.24
2019-06-10T11:55:33.332Z,38.17
2019-06-10T11:58:07.157Z,38.04
2019-06-10T12:00:42.530Z,38.63
2019-06-10T12:03:15.518Z,38.35
2019-06-10T12:05:49.099Z,37.77
2019-06-10T12:08:23.702Z,37.85
2019-06-10T12:11:01.820Z,37.14
2019-06-10T12:13:34.667Z,37.57
2019-06-10T12:18:44.511Z,36.25
2019-06-10T12:21:17.811Z,35.99
2019-06-10T12:23:54.809Z,34.39
2019-06-10T12:26:26.179Z,34.70
2019-06-10T12:29:01.710Z,36.07
2019-06-10T12:31:34.928Z,34.64
2019-06-10T12:34:08.723Z,34.24
2019-06-10T12:36:41.849Z,34.59
2019-06-10T12:39:58.201Z,34.56
2019-06-10T12:42:33.776Z,34.34
2019-06-10T12:45:12.756Z,35.13
2019-06-10T12:48:16.321Z,35.30
2019-06-10T12:50:55.329Z,35.18
2019-06-10T12:53:26.659Z,36.05
2019-06-10T12:56:02.751Z,35.71
2019-06-10T12:58:34.673Z,36.26
2019-06-10T13:01:08.135Z,34.78
2019-06-10T13:03:43.640Z,35.70
2019-06-10T13:06:18.773Z,35.28
2019-06-10T13:08:56.387Z,35.68
2019-06-10T13:11:29.525Z,35.39
2019-06-10T13:14:05.113Z,34.19
2019-06-10T13:16:37.751Z,34.23
2019-06-10T13:19:13.152Z,34.70
2019-06-10T13:21:45.876Z,35.25
2019-06-10T13:24:22.323Z,34.34
2019-06-10T13:26:56.540Z,34.82
2019-06-10T13:29:38.151Z,35.48
2019-06-10T13:32:12.825Z,35.12
2019-06-10T13:34:48.858Z,35.07
2019-06-10T13:37:22.822Z,35.70
2019-06-10T13:39:57.455Z,35.30
2019-06-10T13:42:35.687Z,35.29
2019-06-10T13:45:08.180Z,34.93
2019-06-10T13:48:01.127Z,33.82
2019-06-10T13:50:38.861Z,33.54
2019-06-10T13:53:13.544Z,32.03
2019-06-10T13:55:47.282Z,32.50
2019-06-10T13:58:23.053Z,32.62
2019-06-10T14:00:56.227Z,32.76
2019-06-10T14:03:32.678Z,32.63
2019-06-10T14:06:25.798Z,33.29
2019-06-10T14:08:43.194Z,33.06
2019-06-10T14:11:18.714Z,32.95
2019-06-10T14:13:54.723Z,33.11
2019-06-10T14:16:28.552Z,32.86
2019-06-10T14:19:05.760Z,33.34
2019-06-10T14:21:39.379Z,32.53
2019-06-10T14:24:15.977Z,32.95
2019-06-10T14:26:48.671Z,32.86
2019-06-10T14:29:22.356Z,33.24
2019-06-10T14:31:56.060Z,32.98
2019-06-10T14:34:29.891Z,33.44
2019-06-10T14:37:03.806Z,33.67
2019-06-10T14:39:38.993Z,34.29
2019-06-10T14:42:15.007Z,34.33
2019-06-10T14:44:53.931Z,34.15
2019-06-10T14:47:28.730Z,34.26
2019-06-10T14:50:05.191Z,33.94
2019-06-10T14:52:39.043Z,33.32
2019-06-10T14:55:16.401Z,32.98
2019-06-10T14:57:48.510Z,33.24
2019-06-10T15:00:23.741Z,34.15
2019-06-10T15:02:57.616Z,34.52
2019-06-10T15:05:32.383Z,33.20
2019-06-10T15:08:07.216Z,32.63
2019-06-10T15:10:43.019Z,32.99
2019-06-10T15:13:16.110Z,32.86
2019-06-10T15:15:49.533Z,32.70
2019-06-10T15:18:23.873Z,33.00
2019-06-10T15:20:57.781Z,32.04
2019-06-10T15:23:32.529Z,32.67
2019-06-10T15:26:09.914Z,33.25
2019-06-10T15:28:43.722Z,33.94
2019-06-10T15:31:19.555Z,33.86
2019-06-10T15:33:53.408Z,34.41
2019-06-10T15:36:27.353Z,34.38
2019-06-10T15:39:01.081Z,34.56
2019-06-10T15:41:36.221Z,35.32
2019-06-10T15:44:09.869Z,34.89
2019-06-10T15:46:43.386Z,35.23
2019-06-10T15:49:19.359Z,34.91
2019-06-10T15:51:52.775Z,35.21
2019-06-10T15:54:26.765Z,35.70
2019-06-10T15:57:00.342Z,35.84
2019-06-10T15:59:34.146Z,35.83
2019-06-10T16:02:13.866Z,35.95
2019-06-10T16:04:46.727Z,35.54
2019-06-10T16:07:25.774Z,36.55
2019-06-10T16:10:03.813Z,37.01
2019-06-10T16:13:03.437Z,37.17
2019-06-10T16:15:43.469Z,37.26
2019-06-10T16:18:20.088Z,37.42
2019-06-10T16:20:54.667Z,37.91
2019-06-10T16:23:29.044Z,37.96
2019-06-10T16:26:29.993Z,37.79
2019-06-10T16:29:15.206Z,37.85
2019-06-10T16:31:52.951Z,37.72
2019-06-10T16:34:41.306Z,38.02
2019-06-10T16:52:15.719Z,39.52
2019-06-10T16:54:58.108Z,39.40
2019-06-10T16:57:33.445Z,39.62
2019-06-10T17:00:18.331Z,39.75
2019-06-10T17:03:15.144Z,40.05
2019-06-10T17:05:53.237Z,40.45
2019-06-10T17:08:28.429Z,40.15
2019-06-10T17:11:03.282Z,40.43
2019-06-10T17:13:37.466Z,40.30
2019-06-10T17:16:12.782Z,40.38
2019-06-10T17:18:47.087Z,40.69
2019-06-10T17:21:24.709Z,40.82
2019-06-10T17:23:58.346Z,40.81
2019-06-10T17:26:37.874Z,40.84
2019-06-10T17:29:11.874Z,40.97
2019-06-10T17:31:49.029Z,41.46
2019-06-10T17:34:25.963Z,41.40
2019-06-10T17:36:59.557Z,41.21
2019-06-10T17:39:34.913Z,41.59
2019-06-10T17:42:12.418Z,41.62
2019-06-10T17:44:52.906Z,41.68
2019-06-10T17:47:34.695Z,42.01
2019-06-10T17:50:12.653Z,42.03
2019-06-10T17:52:46.807Z,42.25
2019-06-10T17:55:24.874Z,42.48
2019-06-10T17:57:57.879Z,42.56
2019-06-10T18:00:36.071Z,42.45
2019-06-10T18:03:13.019Z,42.58
2019-06-10T18:05:48.591Z,42.84
2019-06-10T18:08:24.399Z,42.75
2019-06-10T18:11:03.072Z,43.11
2019-06-10T18:13:38.079Z,43.46
2019-06-10T18:16:14.462Z,43.37
2019-06-10T18:18:48.864Z,43.48
2019-06-10T18:21:24.748Z,43.69
2019-06-10T18:24:05.035Z,43.94
2019-06-10T18:26:39.086Z,43.99
2019-06-10T18:29:18.021Z,43.94
2019-06-10T18:31:54.872Z,44.14
2019-06-10T18:34:37.810Z,44.42
2019-06-10T18:37:09.679Z,44.44
2019-06-10T18:39:43.196Z,44.68
2019-06-10T18:42:19.603Z,44.50
2019-06-10T18:44:53.071Z,44.80
2019-06-10T18:47:27.547Z,44.93
2019-06-10T18:50:01.198Z,45.13
2019-06-10T18:52:34.583Z,45.09
2019-06-10T18:55:09.207Z,45.30
2019-06-10T18:57:42.713Z,45.49
2019-06-10T19:00:17.697Z,45.52
2019-06-10T19:03:08.646Z,45.74
2019-06-10T19:05:26.208Z,45.96
2019-06-10T19:07:59.371Z,46.03
2019-06-10T19:10:35.299Z,46.12
2019-06-10T19:13:07.751Z,46.67
2019-06-10T19:15:42.592Z,47.21
2019-06-10T19:18:17.021Z,47.49
2019-06-10T19:20:52.389Z,47.71
2019-06-10T19:23:25.040Z,47.53
2019-06-10T19:25:58.216Z,47.63
2019-06-10T19:28:33.892Z,47.98
2019-06-10T19:31:06.319Z,47.99
2019-06-10T19:33:41.330Z,47.95
2019-06-10T19:36:15.496Z,47.98
2019-06-10T19:38:48.787Z,48.12
2019-06-10T19:41:25.466Z,48.40
2019-06-10T19:43:59.780Z,48.68
2019-06-10T19:46:34.244Z,48.87
2019-06-10T19:49:07.743Z,49.09
2019-06-10T19:51:46.249Z,49.17
2019-06-10T19:54:19.397Z,49.23
2019-06-10T19:56:52.705Z,49.55
2019-06-10T19:59:25.891Z,50.00
2019-06-10T20:01:59.004Z,50.01
2019-06-10T20:04:33.446Z,50.18
2019-06-10T20:07:07.161Z,50.36
2019-06-10T20:09:43.513Z,50.49
2019-06-10T20:12:15.390Z,50.64
2019-06-10T20:14:49.861Z,50.74
2019-06-10T20:17:23.282Z,51.37
2019-06-10T20:19:56.385Z,51.39
2019-06-10T20:22:31.944Z,51.39
2019-06-10T20:25:04.758Z,51.82
2019-06-10T20:27:37.927Z,52.05
2019-06-10T20:30:24.287Z,51.89
2019-06-10T20:32:51.878Z,52.21
2019-06-10T20:35:23.214Z,52.20
2019-06-10T20:37:57.592Z,52.66
2019-06-10T20:40:32.071Z,52.45
2019-06-10T20:43:05.841Z,52.42
2019-06-10T20:45:39.533Z,52.54
2019-06-10T20:48:12.939Z,52.72
2019-06-10T20:50:47.361Z,53.16
2019-06-10T20:53:21.056Z,53.38
2019-06-10T20:55:57.615Z,53.64
2019-06-10T20:58:29.214Z,53.71
2019-06-10T21:01:04.586Z,53.78
2019-06-10T21:03:39.111Z,53.62
2019-06-10T21:06:14.301Z,53.92
2019-06-10T21:08:49.602Z,54.11
2019-06-10T21:11:23.240Z,54.61
2019-06-10T21:13:56.842Z,54.68
2019-06-10T21:16:32.170Z,54.87
2019-06-10T21:19:05.907Z,54.67
2019-06-10T21:21:40.388Z,54.97
2019-06-10T21:24:14.588Z,55.27
2019-06-10T21:26:49.902Z,55.49
2019-06-10T21:29:24.000Z,55.59
2019-06-10T21:31:57.481Z,55.37
2019-06-10T21:34:32.712Z,55.79
2019-06-10T21:37:05.845Z,55.68
2019-06-10T21:39:39.347Z,55.95
2019-06-10T21:42:12.881Z,55.95
2019-06-10T21:44:46.301Z,56.03
2019-06-10T21:47:19.733Z,56.20
2019-06-10T21:49:54.644Z,56.36
2019-06-10T21:52:28.337Z,56.73
2019-06-10T21:55:02.956Z,56.63
2019-06-10T21:57:36.633Z,56.35
2019-06-10T22:00:14.071Z,56.72
2019-06-10T22:02:51.062Z,56.91
2019-06-10T22:05:24.411Z,57.04
2019-06-10T22:07:57.876Z,57.06
2019-06-10T22:10:33.409Z,57.05
2019-06-10T22:13:07.276Z,57.26
2019-06-10T22:15:42.527Z,57.60
2019-06-10T22:18:15.573Z,57.53
2019-06-10T22:20:48.992Z,57.86
2019-06-10T22:23:23.263Z,57.98
2019-06-10T22:25:57.720Z,58.03
2019-06-10T22:28:32.797Z,58.04
2019-06-10T22:31:19.117Z,58.15
2019-06-10T22:33:43.125Z,58.25
2019-06-10T22:36:16.650Z,58.27
2019-06-10T22:38:50.098Z,58.14
2019-06-10T22:41:25.063Z,58.15
2019-06-10T22:43:59.679Z,58.17
2019-06-10T22:46:33.443Z,58.09
2019-06-10T22:49:07.698Z,58.02
2019-06-10T22:51:42.872Z,58.02
2019-06-10T22:54:15.952Z,58.12
2019-06-10T22:56:49.673Z,57.99
2019-06-10T22:59:23.056Z,58.09
2019-06-10T23:01:57.981Z,58.11
2019-06-10T23:04:33.141Z,59.34
2019-06-10T23:07:06.469Z,59.59
2019-06-10T23:09:39.861Z,59.69
2019-06-10T23:12:13.273Z,59.34
2019-06-10T23:14:46.599Z,59.64
2019-06-10T23:17:21.918Z,59.72
2019-06-10T23:19:56.546Z,59.79
2019-06-10T23:22:30.149Z,59.85
2019-06-10T23:25:03.524Z,59.90
2019-06-10T23:27:36.905Z,59.95
2019-06-10T23:30:11.730Z,59.95
2019-06-10T23:32:45.420Z,60.11
2019-06-10T23:35:18.871Z,59.84
2019-06-10T23:37:55.141Z,59.90
2019-06-10T23:40:27.473Z,59.90
2019-06-10T23:43:01.648Z,59.88
2019-06-10T23:45:35.866Z,60.02
2019-06-10T23:48:09.235Z,59.93
2019-06-10T23:50:43.686Z,60.14
2019-06-10T23:53:17.312Z,59.65
2019-06-10T23:55:51.788Z,59.61
2019-06-10T23:58:25.570Z,59.57
